Stoutland, Missouri
Current Conditions -  °F | °C
As of 6:15 AM on Friday 24 Oct 2014 (Local Time) from KH21 Reporting Station
Haze Haze  
Wind Chill: 14°   Ceiling: 1400
Heat Index: 14°   Visibility: 5mi
Dew Point: 13°   Wind: 0mph
Humidity: 94%   Direction: NA
Pressure: 30.11"   Gusts: NA
Location:  37.81°N, 92.51°W
Report Text: KH21 241115Z AUTO 00000KT 5SM BR OVC014 14/13 A3011 RMK AO2
Loading
Personal Weather Stations






























Interactive Weather Map
Tropical Storm Tracking
New forecast layout! Learn more

10-Day Weather Forecast

Advertisements
Track Severe Weather on mobile